Shawinigan, Canada
Current Conditions -  °F | °C
As of 10:00 PM on Tuesday 21 Oct 2014 (Local Time) from CYRQ Reporting Station
Overcast Overcast  
Wind Chill: 39°   Ceiling: 9000
Heat Index: 45°   Visibility: 9mi
Dew Point: 30°   Wind: 10mph
Humidity: 57%   Direction: 40°NE
Pressure: 30.21"   Gusts: NA
Location:  46.54°N, 72.75°W
Report Text: CYRQ 220200Z AUTO 04009KT 9SM SCT050 BKN090 OVC110 07/M01 A3021 RMK SLP232
Loading
Personal Weather Stations






























Interactive Weather Map
Tropical Storm Tracking
New forecast layout! Learn more

10-Day Weather Forecast

Advertisements
Track Severe Weather on mobile